IBE07VR LEMD-LOWW
Flight info
| Callsign | IBE07VR |
|---|---|
| Flight time | N/A |
| Altitude | 35000 |
| Route | PINAR N870 SEROX/N0447F360 N870 BCN DCT SALON M985 LUMAS DCT UNANA DCT STP DCT RAPED DCT PIGOS DCT EKSID DCT NOSTA DCT NOPMU/N0450F370 DCT ARALD DCT ABTAN ABTAN2W |
| Aircraft | A320/M-SDE3FGHIRWY/LB1 |
Departure
| Time | 2026-04-30 07:41 |
|---|---|
| Airport | Adolfo Suárez Madrid–Barajas Airport (LEMD) |
Arrival
| Time | N/A |
|---|---|
| Airport | Vienna International Airport (LOWW) |
| Time | Latitude | Longitude | Altitude | Speed | Heading |
|---|---|---|---|---|---|
| 2026-04-30 07:04 | 40.49450 | -3.59205 | 1981 ft | 0 kts | 90° |
| 2026-04-30 07:26 | 40.49450 | -3.59211 | 1982 ft | 3 kts | 90° |
| 2026-04-30 07:26 | 40.49449 | -3.59246 | 1980 ft | 4 kts | 82° |
| 2026-04-30 07:26 | 40.49442 | -3.59279 | 1982 ft | 4 kts | 51° |
| 2026-04-30 07:27 | 40.49429 | -3.59292 | 1981 ft | 0 kts | 359° |
| 2026-04-30 07:30 | 40.49468 | -3.59293 | 1981 ft | 8 kts | 359° |
| 2026-04-30 07:30 | 40.49538 | -3.59293 | 1980 ft | 13 kts | 360° |
| 2026-04-30 07:30 | 40.49643 | -3.59294 | 1981 ft | 18 kts | 359° |
| 2026-04-30 07:31 | 40.49740 | -3.59266 | 1982 ft | 10 kts | 74° |
| 2026-04-30 07:31 | 40.49747 | -3.59151 | 1981 ft | 15 kts | 90° |
| 2026-04-30 07:31 | 40.49747 | -3.58993 | 1980 ft | 20 kts | 90° |
| 2026-04-30 07:31 | 40.49738 | -3.58804 | 1980 ft | 21 kts | 97° |
| 2026-04-30 07:32 | 40.49735 | -3.58610 | 1980 ft | 22 kts | 90° |
| 2026-04-30 07:32 | 40.49736 | -3.58422 | 1980 ft | 21 kts | 89° |
| 2026-04-30 07:32 | 40.49737 | -3.58232 | 1980 ft | 20 kts | 90° |
| 2026-04-30 07:32 | 40.49724 | -3.58088 | 1982 ft | 13 kts | 126° |
| 2026-04-30 07:33 | 40.49623 | -3.58065 | 1980 ft | 17 kts | 179° |
| 2026-04-30 07:33 | 40.49490 | -3.58064 | 1980 ft | 21 kts | 180° |
| 2026-04-30 07:33 | 40.49344 | -3.58064 | 1980 ft | 21 kts | 179° |
| 2026-04-30 07:33 | 40.49193 | -3.58062 | 1982 ft | 22 kts | 179° |
| 2026-04-30 07:34 | 40.49039 | -3.58061 | 1980 ft | 23 kts | 180° |
| 2026-04-30 07:34 | 40.48899 | -3.58059 | 1980 ft | 17 kts | 174° |
| 2026-04-30 07:34 | 40.48858 | -3.57932 | 1980 ft | 17 kts | 88° |
| 2026-04-30 07:34 | 40.48860 | -3.57766 | 1980 ft | 19 kts | 89° |
| 2026-04-30 07:35 | 40.48859 | -3.57580 | 1980 ft | 21 kts | 90° |
| 2026-04-30 07:35 | 40.48860 | -3.57387 | 1980 ft | 21 kts | 89° |
| 2026-04-30 07:35 | 40.48861 | -3.57195 | 1980 ft | 21 kts | 89° |
| 2026-04-30 07:35 | 40.48862 | -3.57000 | 1980 ft | 21 kts | 90° |
| 2026-04-30 07:36 | 40.48863 | -3.56804 | 1980 ft | 22 kts | 89° |
| 2026-04-30 07:36 | 40.48863 | -3.56608 | 1980 ft | 22 kts | 90° |
| 2026-04-30 07:36 | 40.48863 | -3.56408 | 1980 ft | 22 kts | 89° |
| 2026-04-30 07:36 | 40.48892 | -3.56257 | 1981 ft | 16 kts | 25° |
| 2026-04-30 07:37 | 40.49015 | -3.56250 | 1980 ft | 20 kts | 0° |
| 2026-04-30 07:37 | 40.49159 | -3.56249 | 1980 ft | 21 kts | 360° |
| 2026-04-30 07:37 | 40.49310 | -3.56250 | 1982 ft | 22 kts | 359° |
| 2026-04-30 07:37 | 40.49464 | -3.56253 | 1980 ft | 23 kts | 359° |
| 2026-04-30 07:38 | 40.49613 | -3.56253 | 1989 ft | 21 kts | 0° |
| 2026-04-30 07:38 | 40.49760 | -3.56254 | 1981 ft | 21 kts | 0° |
| 2026-04-30 07:38 | 40.49907 | -3.56252 | 1980 ft | 17 kts | 10° |
| 2026-04-30 07:38 | 40.49941 | -3.56126 | 1980 ft | 17 kts | 89° |
| 2026-04-30 07:39 | 40.49952 | -3.56036 | 1982 ft | 0 kts | 69° |
| 2026-04-30 07:39 | 40.49955 | -3.56027 | 1981 ft | 4 kts | 67° |
| 2026-04-30 07:39 | 40.49984 | -3.55973 | 1980 ft | 11 kts | 46° |
| 2026-04-30 07:40 | 40.50059 | -3.55926 | 1981 ft | 14 kts | 11° |
| 2026-04-30 07:40 | 40.50159 | -3.55923 | 1980 ft | 13 kts | 359° |
| 2026-04-30 07:40 | 40.50307 | -3.55925 | 1983 ft | 46 kts | 360° |
| 2026-04-30 07:40 | 40.50873 | -3.55927 | 1980 ft | 114 kts | 359° |
| 2026-04-30 07:41 | 40.51849 | -3.55933 | 1981 ft | 167 kts | 360° |
| 2026-04-30 07:41 | 40.53125 | -3.55936 | 2275 ft | 186 kts | 0° |
| 2026-04-30 07:41 | 40.54403 | -3.55799 | 3035 ft | 186 kts | 16° |
| 2026-04-30 07:41 | 40.55681 | -3.55277 | 3453 ft | 202 kts | 17° |
| 2026-04-30 07:42 | 40.57091 | -3.54723 | 3743 ft | 221 kts | 16° |
| 2026-04-30 07:42 | 40.58596 | -3.54114 | 4296 ft | 229 kts | 18° |
| 2026-04-30 07:42 | 40.60011 | -3.53126 | 4914 ft | 239 kts | 38° |
| 2026-04-30 07:42 | 40.61361 | -3.51674 | 5214 ft | 263 kts | 40° |
| 2026-04-30 07:43 | 40.62803 | -3.50064 | 5729 ft | 277 kts | 40° |
| 2026-04-30 07:43 | 40.64277 | -3.48397 | 6510 ft | 282 kts | 40° |
| 2026-04-30 07:43 | 40.65237 | -3.47311 | 7010 ft | 284 kts | 40° |
| 2026-04-30 07:43 | 40.66536 | -3.45844 | 7640 ft | 288 kts | 40° |
| 2026-04-30 07:44 | 40.67202 | -3.45094 | 7978 ft | 290 kts | 40° |
| 2026-04-30 07:44 | 40.67792 | -3.44431 | 8253 ft | 292 kts | 40° |
| 2026-04-30 07:44 | 40.68134 | -3.44047 | 8425 ft | 293 kts | 40° |
| 2026-04-30 07:44 | 40.69700 | -3.42291 | 9175 ft | 298 kts | 39° |
| 2026-04-30 07:45 | 40.70072 | -3.41873 | 9343 ft | 299 kts | 39° |